Time;durP1;ratioP1;P1;durP2;ratioP2;P2;SDS_P1;SDS_P2;PMS_P1;PMS_P2;Temp;Humidity;BMP_temperature;BMP_pressure;BME280_temperature;BME280_humidity;BME280_pressure;Samples;Min_cycle;Max_cycle;Signal;HPM_P1;HPM_P2
2023/06/15 00:01:32;;;;;;;6.07;3.40;;;;;;;17.52;59.59;102079.91;6100349;19;20050;-75
2023/06/15 00:03:37;;;;;;;5.63;3.42;;;;;;;17.53;60.13;102078.97;6102114;19;20579;-74
2023/06/15 00:05:42;;;;;;;6.10;3.45;;;;;;;17.52;59.75;102084.38;6092040;19;20011;-73
2023/06/15 00:07:47;;;;;;;6.00;3.15;;;;;;;17.48;60.00;102078.38;6100182;19;20296;-74
2023/06/15 00:09:56;;;;;;;5.05;3.35;;;;;;;17.42;59.91;102085.78;6098255;19;20516;-73
2023/06/15 00:12:01;;;;;;;5.25;3.10;;;;;;;17.33;60.68;102090.59;6097719;19;20026;-74
2023/06/15 00:14:08;;;;;;;4.97;3.05;;;;;;;17.32;60.68;102091.56;6103185;19;20010;-74
2023/06/15 00:16:18;;;;;;;4.40;3.28;;;;;;;17.40;60.87;102083.19;6099098;19;20010;-75
2023/06/15 00:18:23;;;;;;;7.18;3.38;;;;;;;17.49;60.37;102095.16;6097039;19;20499;-75
2023/06/15 00:20:29;;;;;;;7.32;3.55;;;;;;;17.49;60.69;102085.41;6101001;19;20104;-74
2023/06/15 00:22:34;;;;;;;5.70;3.35;;;;;;;17.55;60.41;102086.88;6103419;19;20467;-74
2023/06/15 00:24:42;;;;;;;5.90;3.22;;;;;;;17.53;60.50;102086.09;6100286;19;20551;-75
2023/06/15 00:26:50;;;;;;;6.55;3.80;;;;;;;17.54;60.51;102088.69;6105428;19;20011;-75
2023/06/15 00:28:55;;;;;;;8.48;3.92;;;;;;;17.56;60.57;102091.25;6102937;19;20493;-75
2023/06/15 00:31:01;;;;;;;6.25;3.75;;;;;;;17.57;60.62;102095.66;6100160;19;20007;-75
2023/06/15 00:33:06;;;;;;;5.03;3.38;;;;;;;17.60;60.75;102092.81;6104162;19;21183;-74
2023/06/15 00:35:11;;;;;;;6.35;3.90;;;;;;;17.70;60.74;102093.25;6102896;19;20011;-74
2023/06/15 00:37:18;;;;;;;6.55;3.38;;;;;;;17.67;61.05;102086.28;6103643;19;20056;-74
2023/06/15 00:39:23;;;;;;;8.00;4.00;;;;;;;17.74;61.14;102090.31;6101800;19;20011;-74
2023/06/15 00:41:28;;;;;;;7.00;3.58;;;;;;;17.75;61.45;102092.06;6104759;19;20015;-74
2023/06/15 00:43:36;;;;;;;6.57;3.40;;;;;;;17.76;61.50;102087.59;6105854;19;20006;-74
2023/06/15 00:45:41;;;;;;;5.03;3.15;;;;;;;17.72;61.49;102088.69;6092686;19;20019;-74
2023/06/15 00:47:46;;;;;;;6.72;3.72;;;;;;;17.72;61.83;102086.03;6104436;19;20010;-74
2023/06/15 00:49:55;;;;;;;5.85;3.42;;;;;;;17.66;62.23;102091.66;6101471;19;20118;-68
2023/06/15 00:52:00;;;;;;;5.90;3.88;;;;;;;17.64;62.22;102093.53;6101846;19;20023;-68
2023/06/15 00:54:06;;;;;;;6.45;3.47;;;;;;;17.64;62.35;102090.88;6099159;19;20023;-68
2023/06/15 00:56:12;;;;;;;5.95;3.70;;;;;;;17.60;62.50;102087.50;6102168;19;20534;-69
2023/06/15 00:58:18;;;;;;;6.50;4.03;;;;;;;17.57;62.93;102090.34;6103162;19;20006;-69
2023/06/15 01:00:26;;;;;;;6.38;3.90;;;;;;;17.55;62.88;102090.41;6102052;19;20029;-75
2023/06/15 01:02:34;;;;;;;7.70;3.92;;;;;;;17.53;63.27;102094.91;6103811;19;20017;-76
2023/06/15 01:04:39;;;;;;;6.38;3.92;;;;;;;17.59;63.06;102090.22;6102572;19;20011;-75
2023/06/15 01:06:51;;;;;;;6.85;3.78;;;;;;;17.54;62.94;102095.81;6104971;19;20016;-75
2023/06/15 01:08:57;;;;;;;6.65;3.70;;;;;;;17.59;62.76;102098.22;6103814;19;20107;-76
2023/06/15 01:11:03;;;;;;;5.88;3.90;;;;;;;17.63;62.84;102097.13;6101567;19;20027;-75
2023/06/15 01:13:12;;;;;;;7.10;4.10;;;;;;;17.58;62.70;102093.84;6102947;19;20015;-73
2023/06/15 01:15:17;;;;;;;6.80;4.32;;;;;;;17.54;62.99;102101.13;6104315;19;20346;-76
2023/06/15 01:17:30;;;;;;;8.05;4.22;;;;;;;17.57;62.77;102102.75;6103342;19;20112;-76
2023/06/15 01:19:53;;;;;;;6.60;3.80;;;;;;;17.57;62.96;102097.44;6102973;19;20003;-73
2023/06/15 01:22:07;;;;;;;7.93;4.20;;;;;;;17.50;63.06;102105.72;6099945;19;20286;-75
2023/06/15 01:24:23;;;;;;;7.55;4.07;;;;;;;17.47;63.43;102097.88;6102776;19;20010;-75
2023/06/15 01:26:32;;;;;;;7.10;3.92;;;;;;;17.44;63.44;102099.84;6100538;19;20014;-75
2023/06/15 01:28:40;;;;;;;6.78;4.28;;;;;;;17.46;63.14;102101.50;6103236;19;20002;-75
2023/06/15 01:30:50;;;;;;;8.13;4.85;;;;;;;17.37;63.62;102107.25;6099432;19;20042;-76
2023/06/15 01:32:55;;;;;;;6.93;4.15;;;;;;;17.36;63.75;102104.69;6098503;19;20398;-75
2023/06/15 01:35:02;;;;;;;6.82;4.40;;;;;;;17.38;63.98;102100.13;6100686;19;20024;-73
2023/06/15 01:37:08;;;;;;;7.28;4.63;;;;;;;17.31;63.97;102095.13;6101436;19;20025;-76
2023/06/15 01:39:13;;;;;;;7.10;4.57;;;;;;;17.31;64.04;102102.25;6099509;19;20019;-68
2023/06/15 01:41:20;;;;;;;9.90;4.70;;;;;;;17.31;64.37;102105.75;6091517;19;20010;-68
2023/06/15 01:43:31;;;;;;;7.68;4.57;;;;;;;17.26;64.25;102109.56;6100348;19;20049;-68
2023/06/15 01:45:38;;;;;;;8.60;4.45;;;;;;;17.23;64.58;102105.25;6102264;19;20010;-69
2023/06/15 01:47:44;;;;;;;6.60;4.53;;;;;;;17.22;64.83;102100.91;6096895;19;20346;-69
2023/06/15 01:49:49;;;;;;;6.72;3.90;;;;;;;17.19;64.97;102108.13;6098746;19;20014;-70
2023/06/15 01:51:54;;;;;;;7.68;4.32;;;;;;;17.17;65.18;102104.69;6095838;19;20048;-68
2023/06/15 01:54:01;;;;;;;7.97;4.47;;;;;;;17.16;65.46;102110.94;6095636;19;20495;-70
2023/06/15 01:56:07;;;;;;;7.90;4.75;;;;;;;17.15;65.29;102109.25;6098207;19;20074;-70
2023/06/15 01:58:15;;;;;;;9.55;5.18;;;;;;;17.13;65.60;102103.13;6097644;19;20014;-67
2023/06/15 02:00:26;;;;;;;8.95;4.10;;;;;;;17.09;65.71;102103.28;6096132;19;20060;-68
2023/06/15 02:02:32;;;;;;;8.68;4.93;;;;;;;17.07;66.06;102107.78;6100293;19;20010;-68
2023/06/15 02:04:37;;;;;;;7.78;4.45;;;;;;;17.06;66.21;102108.75;6099117;19;20035;-68
2023/06/15 02:06:42;;;;;;;7.68;4.88;;;;;;;17.04;66.39;102110.59;6097740;19;20035;-68
2023/06/15 02:08:47;;;;;;;8.40;4.45;;;;;;;17.02;66.48;102107.16;6096049;19;20039;-68
2023/06/15 02:10:54;;;;;;;7.93;4.50;;;;;;;16.98;66.44;102113.56;6098956;19;20010;-68
2023/06/15 02:12:59;;;;;;;7.05;4.55;;;;;;;16.92;66.53;102113.81;6098861;19;20367;-68
2023/06/15 02:15:05;;;;;;;7.53;4.53;;;;;;;16.88;67.04;102109.63;6096780;19;20102;-68
2023/06/15 02:17:12;;;;;;;9.27;4.80;;;;;;;16.84;67.08;102105.38;6097884;19;20010;-67
2023/06/15 02:19:20;;;;;;;8.70;4.35;;;;;;;16.82;67.62;102109.88;6097815;19;20019;-68
2023/06/15 02:21:26;;;;;;;6.10;4.05;;;;;;;16.77;67.20;102109.19;6095901;19;20017;-69
2023/06/15 02:23:32;;;;;;;6.60;3.75;;;;;;;16.65;67.28;102113.28;6095302;19;20610;-68
2023/06/15 02:25:37;;;;;;;7.93;4.75;;;;;;;16.59;67.70;102110.91;6093890;19;20031;-68
2023/06/15 02:27:42;;;;;;;6.65;4.13;;;;;;;16.57;67.26;102118.94;6091864;19;20038;-69
2023/06/15 02:29:50;;;;;;;6.97;4.53;;;;;;;16.45;67.85;102114.19;6098984;19;20025;-68
2023/06/15 02:31:55;;;;;;;8.25;4.57;;;;;;;16.38;68.95;102118.06;6098044;19;20002;-68
2023/06/15 02:34:04;;;;;;;7.70;4.68;;;;;;;16.30;68.81;102112.19;6100611;19;20167;-68
2023/06/15 02:36:09;;;;;;;8.23;4.38;;;;;;;16.27;68.56;102121.16;6097782;19;20078;-68
2023/06/15 02:38:14;;;;;;;9.18;4.88;;;;;;;16.23;68.92;102120.44;6096557;19;20076;-68
2023/06/15 02:40:26;;;;;;;8.07;4.53;;;;;;;16.21;69.65;102124.94;6098224;19;20027;-68
2023/06/15 02:42:32;;;;;;;8.27;4.43;;;;;;;16.18;70.01;102119.78;6098583;19;20010;-68
2023/06/15 02:44:37;;;;;;;8.32;4.97;;;;;;;16.16;69.38;102118.97;6097047;19;20010;-69
2023/06/15 02:46:42;;;;;;;7.80;4.38;;;;;;;16.14;70.35;102123.50;6095134;19;20006;-67
2023/06/15 02:48:51;;;;;;;10.05;4.57;;;;;;;16.10;70.58;102129.84;6097992;19;20015;-68
2023/06/15 02:50:59;;;;;;;6.75;4.80;;;;;;;16.06;70.21;102130.94;6094912;19;20052;-69
2023/06/15 02:53:04;;;;;;;6.85;4.50;;;;;;;16.02;70.11;102114.28;6091383;19;20042;-70
2023/06/15 02:55:13;;;;;;;7.47;4.72;;;;;;;16.01;70.85;102124.97;6092200;19;20014;-69
2023/06/15 02:57:18;;;;;;;7.65;4.97;;;;;;;16.01;72.09;102127.63;6093252;19;20011;-70
2023/06/15 02:59:25;;;;;;;8.95;5.30;;;;;;;15.98;70.95;102127.72;6092879;19;20014;-68
2023/06/15 03:01:40;;;;;;;7.22;4.50;;;;;;;15.97;71.12;102126.00;6095954;19;20030;-70
2023/06/15 03:03:46;;;;;;;9.93;5.35;;;;;;;15.95;71.99;102126.06;6089052;19;20546;-70
2023/06/15 03:05:51;;;;;;;10.48;5.38;;;;;;;15.94;71.71;102126.16;6092592;19;20059;-75
2023/06/15 03:07:59;;;;;;;10.02;5.30;;;;;;;15.92;71.75;102117.38;6094876;19;20050;-76
2023/06/15 03:10:05;;;;;;;10.52;5.05;;;;;;;15.92;72.43;102128.00;6092560;19;20022;-74
2023/06/15 03:12:11;;;;;;;7.90;5.18;;;;;;;15.88;72.33;102119.31;6098326;19;20015;-73
2023/06/15 03:14:18;;;;;;;8.57;4.90;;;;;;;15.89;72.34;102136.06;6096451;19;20503;-74
2023/06/15 03:16:25;;;;;;;9.38;5.10;;;;;;;15.85;72.93;102123.88;6096003;19;20128;-75
2023/06/15 03:18:31;;;;;;;9.38;4.90;;;;;;;15.85;72.29;102130.06;6097542;19;20010;-74
2023/06/15 03:20:37;;;;;;;7.85;4.15;;;;;;;15.83;72.30;102134.56;6094916;19;20002;-73
2023/06/15 03:22:42;;;;;;;10.00;5.35;;;;;;;15.82;72.44;102131.94;6098801;19;20019;-74
2023/06/15 03:24:50;;;;;;;7.68;5.00;;;;;;;15.86;73.03;102133.56;6096994;19;20087;-74
2023/06/15 03:26:57;;;;;;;11.70;5.75;;;;;;;15.89;73.14;102133.44;6097385;19;20105;-74
2023/06/15 03:29:03;;;;;;;8.60;5.00;;;;;;;15.86;72.68;102136.22;6096744;19;19998;-73
2023/06/15 03:31:08;;;;;;;9.30;4.95;;;;;;;15.78;72.66;102132.09;6096065;19;20806;-75
2023/06/15 03:33:16;;;;;;;9.95;5.65;;;;;;;15.76;73.18;102136.59;6096672;19;20006;-74
2023/06/15 03:35:21;;;;;;;8.55;5.40;;;;;;;15.72;72.71;102131.50;6096662;19;20296;-74
2023/06/15 03:37:29;;;;;;;9.48;5.75;;;;;;;15.72;73.46;102134.16;6095729;19;20505;-75
2023/06/15 03:39:35;;;;;;;8.55;5.13;;;;;;;15.70;72.98;102134.19;6099257;19;20093;-75
2023/06/15 03:41:42;;;;;;;8.23;4.70;;;;;;;15.70;73.36;102133.34;6096684;19;20006;-73
2023/06/15 03:43:47;;;;;;;9.20;5.25;;;;;;;15.70;73.13;102136.84;6095559;19;20146;-74
2023/06/15 03:45:53;;;;;;;10.38;5.43;;;;;;;15.69;73.50;102136.91;6092799;19;20547;-75
2023/06/15 03:47:58;;;;;;;8.50;5.38;;;;;;;15.67;73.69;102144.03;6101259;19;20022;-73
2023/06/15 03:50:06;;;;;;;10.50;4.93;;;;;;;15.69;75.24;102143.09;6101104;19;20670;-74
2023/06/15 03:52:11;;;;;;;9.55;4.85;;;;;;;15.69;73.83;102143.09;6097660;19;20059;-75
2023/06/15 03:54:16;;;;;;;8.25;5.05;;;;;;;15.67;73.98;102142.25;6097384;19;20011;-74
2023/06/15 03:56:21;;;;;;;8.70;5.28;;;;;;;15.66;74.57;102137.00;6094920;19;20088;-75
2023/06/15 03:58:29;;;;;;;12.57;6.03;;;;;;;15.67;75.12;102146.69;6100786;19;19998;-74
2023/06/15 04:00:34;;;;;;;8.45;5.22;;;;;;;15.69;74.41;102142.19;6099025;19;20500;-73
2023/06/15 04:02:42;;;;;;;8.70;5.30;;;;;;;15.73;74.81;102143.81;6102378;19;20009;-73
2023/06/15 04:04:47;;;;;;;8.25;5.13;;;;;;;15.72;74.69;102147.41;6103516;19;20334;-75
2023/06/15 04:06:56;;;;;;;8.52;5.20;;;;;;;15.77;74.75;102140.97;6097939;19;20577;-75
2023/06/15 04:09:03;;;;;;;10.40;5.50;;;;;;;15.82;75.58;102146.06;6100278;19;20029;-73
2023/06/15 04:11:08;;;;;;;9.20;5.30;;;;;;;15.85;75.03;102148.63;6100949;19;20006;-74
2023/06/15 04:13:13;;;;;;;9.80;5.40;;;;;;;15.92;74.96;102147.41;6099113;19;20082;-73
2023/06/15 04:15:21;;;;;;;9.63;6.07;;;;;;;16.00;75.06;102147.09;6103064;19;19999;-74
2023/06/15 04:17:26;;;;;;;11.30;5.50;;;;;;;16.05;74.49;102153.06;6098445;19;20499;-74
2023/06/15 04:19:32;;;;;;;9.73;5.82;;;;;;;16.08;74.39;102149.41;6101003;19;20129;-75
2023/06/15 04:21:37;;;;;;;9.40;5.93;;;;;;;16.09;74.35;102151.13;6103456;19;20015;-74
2023/06/15 04:23:43;;;;;;;9.38;5.47;;;;;;;16.14;74.87;102154.44;6098824;19;20014;-75
2023/06/15 04:25:48;;;;;;;8.68;5.78;;;;;;;16.16;74.53;102158.75;6101339;19;20565;-68
2023/06/15 04:27:53;;;;;;;10.75;5.72;;;;;;;16.19;74.63;102155.09;6101771;19;20010;-69
2023/06/15 04:29:59;;;;;;;12.30;5.57;;;;;;;16.23;74.63;102154.06;6100801;19;20034;-68
2023/06/15 04:32:07;;;;;;;9.02;6.05;;;;;;;16.28;74.32;102153.88;6096883;19;20010;-68
2023/06/15 04:34:12;;;;;;;9.30;6.22;;;;;;;16.37;74.46;102153.47;6098454;19;20449;-68
2023/06/15 04:36:17;;;;;;;9.50;5.60;;;;;;;16.48;74.15;102156.50;6097868;19;20047;-68
2023/06/15 04:38:23;;;;;;;10.00;5.82;;;;;;;16.57;73.62;102157.91;6095964;19;20007;-68
2023/06/15 04:40:28;;;;;;;8.23;5.30;;;;;;;16.65;73.10;102161.91;6098011;19;20058;-68
2023/06/15 04:42:33;;;;;;;10.70;6.55;;;;;;;16.80;73.15;102164.84;6097251;19;20483;-68
2023/06/15 04:44:38;;;;;;;10.02;5.97;;;;;;;16.93;72.62;102155.41;6091058;19;20006;-69
2023/06/15 04:46:43;;;;;;;9.52;5.78;;;;;;;17.05;72.53;102165.44;6097129;19;20492;-68
2023/06/15 04:48:51;;;;;;;10.73;5.85;;;;;;;17.21;72.06;102159.41;6098941;19;20014;-68
2023/06/15 04:50:57;;;;;;;9.68;5.97;;;;;;;17.33;71.67;102154.38;6101798;19;20869;-70
2023/06/15 04:53:05;;;;;;;11.77;6.00;;;;;;;17.51;71.04;102162.41;6092215;19;20013;-68
2023/06/15 04:55:11;;;;;;;10.23;6.20;;;;;;;17.65;70.30;102170.56;6099871;19;20491;-68
2023/06/15 04:57:16;;;;;;;11.20;6.00;;;;;;;17.81;70.03;102162.72;6101932;19;20010;-68
2023/06/15 04:59:21;;;;;;;11.43;6.25;;;;;;;17.91;69.31;102163.13;6096164;19;20394;-68
2023/06/15 05:01:26;;;;;;;9.93;6.05;;;;;;;18.10;68.78;102171.03;6097011;19;20011;-68
2023/06/15 05:03:32;;;;;;;9.98;5.78;;;;;;;18.18;68.47;102167.03;6096477;19;20021;-69
2023/06/15 05:05:40;;;;;;;9.48;6.00;;;;;;;18.47;68.28;102163.78;6100899;19;20024;-68
2023/06/15 05:07:46;;;;;;;14.05;7.00;;;;;;;18.65;67.58;102165.47;6089870;19;19999;-68
2023/06/15 05:09:51;;;;;;;12.07;5.95;;;;;;;18.79;66.16;102162.97;6099060;19;20474;-68
2023/06/15 05:11:56;;;;;;;10.52;6.20;;;;;;;18.96;65.74;102167.38;6100326;19;20741;-69
2023/06/15 05:14:03;;;;;;;10.73;6.53;;;;;;;19.18;65.04;102164.38;6097615;19;20042;-68
2023/06/15 05:16:09;;;;;;;12.68;6.88;;;;;;;19.43;64.60;102168.31;6101323;19;20101;-68
2023/06/15 05:18:14;;;;;;;9.88;5.75;;;;;;;19.65;63.36;102168.84;6097509;19;20404;-69
2023/06/15 05:20:19;;;;;;;10.23;6.30;;;;;;;19.80;62.57;102175.13;6096462;19;20066;-70
2023/06/15 05:22:28;;;;;;;9.55;6.07;;;;;;;19.90;62.32;102170.94;6097581;19;20066;-69
2023/06/15 05:24:34;;;;;;;9.77;5.95;;;;;;;20.13;61.90;102168.75;6101257;19;20546;-69
2023/06/15 05:26:39;;;;;;;14.05;6.50;;;;;;;20.36;60.88;102168.22;6097333;19;20013;-69
2023/06/15 05:28:44;;;;;;;11.25;7.03;;;;;;;20.39;59.72;102164.50;6098727;19;20035;-69
2023/06/15 05:30:49;;;;;;;9.10;6.35;;;;;;;20.55;59.38;102164.47;6098349;19;20078;-69
2023/06/15 05:32:54;;;;;;;12.85;6.68;;;;;;;20.48;59.01;102166.59;6100097;19;20017;-70
2023/06/15 05:35:00;;;;;;;10.02;6.43;;;;;;;20.52;59.12;102162.81;6098661;19;20009;-68
2023/06/15 05:37:05;;;;;;;8.93;6.00;;;;;;;20.61;59.38;102167.59;6097989;19;20110;-68
2023/06/15 05:39:13;;;;;;;13.20;7.13;;;;;;;20.77;59.06;102161.31;6095571;19;20003;-68
2023/06/15 05:41:18;;;;;;;11.10;6.75;;;;;;;21.01;58.27;102167.78;6098947;19;20455;-68
2023/06/15 05:43:23;;;;;;;12.18;6.65;;;;;;;21.21;57.39;102168.31;6100040;19;20365;-68
2023/06/15 05:45:32;;;;;;;10.32;6.22;;;;;;;21.57;56.41;102167.78;6096433;19;20638;-68
2023/06/15 05:47:37;;;;;;;11.10;7.00;;;;;;;21.81;56.37;102169.78;6099273;19;20613;-70
2023/06/15 05:49:44;;;;;;;11.52;6.75;;;;;;;21.70;56.50;102173.19;6096798;19;20044;-68
2023/06/15 05:51:49;;;;;;;10.82;6.38;;;;;;;21.97;54.78;102174.97;6097340;19;20009;-69
2023/06/15 05:53:54;;;;;;;10.90;6.43;;;;;;;22.08;54.84;102175.09;6097130;19;20494;-69
2023/06/15 05:56:03;;;;;;;11.05;7.00;;;;;;;22.31;54.59;102166.38;6097874;19;20015;-68
2023/06/15 05:58:10;;;;;;;13.02;6.30;;;;;;;22.46;54.04;102163.56;6098265;19;20028;-69
2023/06/15 06:00:22;;;;;;;11.13;6.75;;;;;;;22.63;53.46;102165.09;6101292;19;20361;-69
2023/06/15 06:02:29;;;;;;;14.38;6.57;;;;;;;22.90;52.41;102170.31;6098485;19;20006;-68
2023/06/15 06:04:34;;;;;;;12.05;7.72;;;;;;;22.64;52.00;102164.97;6098369;19;20561;-69
2023/06/15 06:06:39;;;;;;;13.55;7.63;;;;;;;22.62;52.19;102164.25;6098656;19;20754;-68
2023/06/15 06:08:45;;;;;;;13.20;7.50;;;;;;;22.56;52.40;102170.00;6094895;19;20006;-71
2023/06/15 06:10:50;;;;;;;13.73;7.82;;;;;;;22.55;52.31;102165.63;6094488;19;20007;-68
2023/06/15 06:12:58;;;;;;;14.27;8.23;;;;;;;22.79;52.03;102174.59;6100166;19;20378;-68
2023/06/15 06:15:03;;;;;;;13.25;6.75;;;;;;;23.07;51.44;102172.66;6101438;19;20014;-68
2023/06/15 06:17:10;;;;;;;13.07;7.13;;;;;;;23.33;51.23;102175.25;6102166;19;20007;-69
2023/06/15 06:19:29;;;;;;;12.00;7.88;;;;;;;23.40;50.92;102180.06;6102618;19;20109;-68
2023/06/15 06:21:34;;;;;;;12.98;7.55;;;;;;;23.51;50.42;102170.34;6102364;19;20369;-68
2023/06/15 06:23:40;;;;;;;13.23;7.82;;;;;;;23.22;50.29;102179.59;6103377;19;20017;-68
2023/06/15 06:25:45;;;;;;;14.00;7.43;;;;;;;23.62;50.11;102171.28;6095466;19;20024;-69
2023/06/15 06:27:50;;;;;;;12.02;8.18;;;;;;;23.73;49.49;102175.03;6098829;19;20431;-69
2023/06/15 06:29:59;;;;;;;13.93;8.25;;;;;;;23.67;50.38;102173.59;6100552;19;20805;-69
2023/06/15 06:32:04;;;;;;;11.98;7.85;;;;;;;23.97;48.77;102177.69;6095404;19;20006;-73
2023/06/15 06:34:09;;;;;;;11.40;7.25;;;;;;;23.90;48.70;102169.22;6092333;19;21342;-75
2023/06/15 06:36:14;;;;;;;15.32;8.63;;;;;;;24.21;47.75;102164.19;6092983;19;20014;-75
2023/06/15 06:38:20;;;;;;;12.32;8.18;;;;;;;24.19;47.15;102166.13;6094274;19;20014;-75
2023/06/15 06:40:25;;;;;;;12.98;7.78;;;;;;;24.42;47.56;102165.22;6094817;19;20006;-75
2023/06/15 06:42:32;;;;;;;13.88;7.75;;;;;;;24.48;47.71;102164.75;6101669;19;20006;-74
2023/06/15 06:44:36;;;;;;;11.77;7.90;;;;;;;24.67;47.15;102172.25;6102715;19;20027;-76
2023/06/15 06:46:44;;;;;;;10.90;6.90;;;;;;;24.97;46.77;102162.69;6103411;19;20564;-75
2023/06/15 06:48:49;;;;;;;14.88;7.68;;;;;;;24.93;46.31;102167.44;6102382;19;20456;-74
2023/06/15 06:50:54;;;;;;;14.60;7.82;;;;;;;25.01;46.84;102164.13;6101703;19;20014;-75
2023/06/15 06:52:59;;;;;;;13.73;7.35;;;;;;;24.98;46.50;102167.06;6096198;19;20015;-75
2023/06/15 06:55:04;;;;;;;12.65;7.53;;;;;;;24.92;46.74;102171.13;6103234;19;20011;-74
2023/06/15 06:57:09;;;;;;;11.90;8.05;;;;;;;25.37;45.48;102168.38;6101143;19;20003;-75
2023/06/15 06:59:14;;;;;;;13.95;7.68;;;;;;;25.23;45.36;102167.81;6102138;19;20047;-75
2023/06/15 07:01:39;;;;;;;11.50;7.00;;;;;;;25.79;44.23;102165.78;6097043;19;20007;-74
2023/06/15 07:03:47;;;;;;;12.13;7.63;;;;;;;25.92;44.06;102164.78;6098841;19;20379;-74
2023/06/15 07:05:52;;;;;;;11.95;7.15;;;;;;;26.09;44.69;102160.66;6099981;19;20341;-75
2023/06/15 07:07:58;;;;;;;14.45;7.20;;;;;;;25.99;42.01;102166.00;6100249;19;20015;-75
2023/06/15 07:10:03;;;;;;;13.68;6.38;;;;;;;25.87;42.22;102172.41;6093552;19;20006;-74
2023/06/15 07:12:10;;;;;;;9.95;6.20;;;;;;;26.32;41.68;102175.69;6093027;19;20090;-75
2023/06/15 07:14:15;;;;;;;11.70;7.05;;;;;;;25.96;41.48;102179.69;6095884;19;20102;-74
2023/06/15 07:16:20;;;;;;;13.68;7.10;;;;;;;26.22;41.60;102177.47;6084825;19;20208;-74
2023/06/15 07:18:25;;;;;;;11.93;7.10;;;;;;;25.97;41.85;102190.34;6092827;19;20427;-76
2023/06/15 07:20:34;;;;;;;13.13;7.03;;;;;;;25.92;41.83;102176.41;6091800;19;20489;-75
2023/06/15 07:22:40;;;;;;;10.75;6.30;;;;;;;26.77;41.09;102172.69;6101675;19;21196;-74
2023/06/15 07:24:45;;;;;;;12.38;6.70;;;;;;;26.71;39.84;102170.53;6103645;19;20007;-74
2023/06/15 07:26:50;;;;;;;11.10;7.35;;;;;;;26.97;39.64;102173.63;6106876;19;20007;-74
2023/06/15 07:28:55;;;;;;;12.70;6.57;;;;;;;26.74;38.34;102167.56;6100708;19;20414;-74
2023/06/15 07:31:03;;;;;;;11.10;6.47;;;;;;;26.83;38.79;102176.66;6097888;19;20015;-74
2023/06/15 07:33:08;;;;;;;11.30;6.72;;;;;;;27.19;38.82;102177.13;6101487;19;20011;-75
2023/06/15 07:35:13;;;;;;;10.73;6.35;;;;;;;27.14;37.93;102164.84;6097993;19;20559;-76
2023/06/15 07:37:21;;;;;;;11.75;7.05;;;;;;;27.23;38.34;102173.16;6099249;19;20660;-74
2023/06/15 07:39:26;;;;;;;11.00;6.82;;;;;;;27.45;38.13;102177.44;6098774;19;20017;-73
2023/06/15 07:41:32;;;;;;;15.55;7.90;;;;;;;26.91;38.80;102174.19;6102910;19;20027;-74
2023/06/15 07:43:37;;;;;;;12.90;7.13;;;;;;;27.21;38.70;102178.69;6106762;19;20015;-74
2023/06/15 07:45:45;;;;;;;11.80;6.88;;;;;;;27.39;37.14;102173.47;6103143;19;20015;-76
2023/06/15 07:47:50;;;;;;;12.05;6.00;;;;;;;27.52;38.01;102176.75;6106967;19;20003;-74
2023/06/15 07:49:56;;;;;;;11.10;6.45;;;;;;;28.17;36.38;102182.44;6105121;19;20011;-69
2023/06/15 07:52:02;;;;;;;9.80;6.45;;;;;;;28.38;35.16;102179.53;6105811;19;20014;-74
2023/06/15 07:54:17;;;;;;;;;;;;;;;28.08;36.27;102183.31;6104480;19;20018;-74
2023/06/15 07:56:25;;;;;;;12.60;6.07;;;;;;;28.34;35.35;102178.13;6105606;19;19911;-74
2023/06/15 07:58:31;;;;;;;10.15;5.38;;;;;;;28.55;34.06;102182.53;6104191;19;20039;-75
2023/06/15 08:00:36;;;;;;;11.35;6.20;;;;;;;28.39;34.69;102175.00;6103854;19;20038;-74
2023/06/15 08:02:41;;;;;;;11.15;6.22;;;;;;;28.35;35.57;102176.28;6098571;19;20428;-74
2023/06/15 08:04:47;;;;;;;9.23;5.78;;;;;;;28.34;33.67;102175.44;6098859;19;20039;-75
2023/06/15 08:06:52;;;;;;;10.07;6.07;;;;;;;28.43;33.91;102168.28;6098419;19;20039;-75
2023/06/15 08:08:57;;;;;;;12.15;6.22;;;;;;;28.50;33.43;102174.00;6096958;19;20006;-75
2023/06/15 08:11:06;;;;;;;10.60;6.38;;;;;;;28.81;33.84;102172.72;6102487;19;20015;-73
2023/06/15 08:13:11;;;;;;;11.82;5.72;;;;;;;28.64;33.11;102178.91;6104943;19;20069;-75
2023/06/15 08:15:16;;;;;;;8.35;5.13;;;;;;;28.31;33.45;102177.59;6105519;19;20011;-75
2023/06/15 08:17:22;;;;;;;12.15;5.40;;;;;;;28.55;33.32;102175.25;6102641;19;20056;-75
2023/06/15 08:19:29;;;;;;;8.23;5.38;;;;;;;28.61;33.70;102174.66;6104032;19;20006;-75
2023/06/15 08:21:34;;;;;;;10.80;5.15;;;;;;;28.87;31.88;102174.84;6100558;19;20010;-73
2023/06/15 08:23:39;;;;;;;10.00;5.40;;;;;;;28.64;31.82;102177.06;6102775;19;20058;-74
2023/06/15 08:25:45;;;;;;;10.32;6.43;;;;;;;28.50;32.91;102180.25;6099103;19;20010;-75
2023/06/15 08:27:55;;;;;;;10.38;5.47;;;;;;;29.07;31.77;102180.19;6100148;19;20562;-75
2023/06/15 08:30:02;;;;;;;9.23;5.00;;;;;;;29.36;31.98;102174.59;6101513;19;20392;-75
2023/06/15 08:32:12;;;;;;;10.52;5.43;;;;;;;29.49;32.00;102176.91;6104087;19;20027;-76
2023/06/15 08:34:18;;;;;;;9.98;5.20;;;;;;;29.29;29.26;102173.50;6094276;19;20018;-76
2023/06/15 08:36:23;;;;;;;9.40;6.30;;;;;;;29.11;29.52;102184.28;6096207;19;20144;-74
2023/06/15 08:38:28;;;;;;;12.30;5.35;;;;;;;29.41;31.50;102169.56;6094304;19;20014;-75
2023/06/15 08:40:34;;;;;;;13.80;5.93;;;;;;;29.88;30.48;102177.47;6101413;19;20526;-74
2023/06/15 08:42:40;;;;;;;10.60;5.68;;;;;;;29.35;31.30;102174.72;6100965;19;20490;-75
2023/06/15 08:44:55;;;;;;;10.18;5.47;;;;;;;29.68;29.70;102176.78;6101083;19;20022;-76
2023/06/15 08:47:03;;;;;;;10.68;5.60;;;;;;;29.55;29.20;102176.31;6100996;19;20034;-74
2023/06/15 08:49:08;;;;;;;12.75;4.82;;;;;;;29.53;28.87;102171.03;6102235;19;20540;-74
2023/06/15 08:51:15;;;;;;;8.40;5.07;;;;;;;29.73;28.32;102174.47;6097856;19;19999;-75
2023/06/15 08:53:21;;;;;;;7.80;5.10;;;;;;;29.59;28.69;102176.81;6094222;19;20010;-75
2023/06/15 08:55:28;;;;;;;8.57;5.47;;;;;;;29.30;28.82;102175.19;6101690;19;20030;-75
2023/06/15 08:57:35;;;;;;;10.20;5.40;;;;;;;29.01;29.40;102183.44;6097331;19;20006;-74
2023/06/15 08:59:40;;;;;;;11.85;5.60;;;;;;;29.04;30.18;102188.56;6094576;19;20021;-74
2023/06/15 09:01:51;;;;;;;11.23;5.40;;;;;;;29.28;29.74;102178.06;6099170;19;20078;-76
2023/06/15 09:04:00;;;;;;;12.52;5.95;;;;;;;29.81;29.17;102173.69;6100475;19;20039;-74
2023/06/15 09:06:05;;;;;;;9.65;5.30;;;;;;;29.68;29.10;102170.53;6093266;19;20048;-74
2023/06/15 09:08:11;;;;;;;9.15;5.20;;;;;;;30.26;29.16;102174.56;6096602;19;20059;-74
2023/06/15 09:10:17;;;;;;;9.95;5.50;;;;;;;30.68;28.74;102168.38;6095586;19;20018;-75
2023/06/15 09:12:25;;;;;;;11.73;5.57;;;;;;;30.05;27.79;102175.75;6097072;19;20086;-75
2023/06/15 09:14:40;;;;;;;8.65;5.50;;;;;;;29.92;28.09;102172.59;6094207;19;20582;-75
2023/06/15 09:16:46;;;;;;;10.25;6.10;;;;;;;29.62;28.15;102174.69;6094857;19;20039;-75
2023/06/15 09:18:54;;;;;;;9.75;5.22;;;;;;;29.86;27.88;102175.91;6092688;19;20014;-73
2023/06/15 09:21:01;;;;;;;10.15;5.53;;;;;;;29.99;27.57;102176.38;6095026;19;20494;-74
2023/06/15 09:23:11;;;;;;;10.57;5.80;;;;;;;29.91;28.61;102170.88;6096998;19;20005;-74
2023/06/15 09:25:19;;;;;;;13.57;5.40;;;;;;;29.93;28.99;102174.28;6103237;19;20014;-75
2023/06/15 09:27:25;;;;;;;9.95;5.00;;;;;;;29.77;28.91;102168.72;6096179;19;20370;-74
2023/06/15 09:29:31;;;;;;;10.18;5.72;;;;;;;30.06;28.76;102165.75;6099997;19;20007;-76
2023/06/15 09:31:37;;;;;;;8.80;5.35;;;;;;;30.47;27.77;102172.34;6099535;19;20007;-76
2023/06/15 09:33:42;;;;;;;9.00;5.65;;;;;;;30.57;27.91;102170.34;6094617;19;20014;-74
2023/06/15 09:36:08;;;;;;;9.80;5.90;;;;;;;31.22;27.46;102167.06;6100627;19;20006;-75
2023/06/15 09:38:13;;;;;;;10.55;5.70;;;;;;;31.35;26.50;102172.00;6102061;19;20014;-74
2023/06/15 09:40:19;;;;;;;9.18;5.65;;;;;;;31.38;26.82;102171.69;6098711;19;20003;-76
2023/06/15 09:42:28;;;;;;;10.93;5.63;;;;;;;31.03;26.83;102170.91;6097618;19;20043;-74
2023/06/15 09:44:34;;;;;;;11.38;6.15;;;;;;;31.56;26.70;102176.16;6101887;19;20014;-74
2023/06/15 09:46:39;;;;;;;10.60;5.57;;;;;;;31.02;27.48;102165.66;6099776;19;20011;-74